Time;durP1;ratioP1;P1;durP2;ratioP2;P2;SDS_P1;SDS_P2;PMS_P1;PMS_P2;Temp;Humidity;BMP_temperature;BMP_pressure;BME280_temperature;BME280_humidity;BME280_pressure;Samples;Min_cycle;Max_cycle;Signal;HPM_P1;HPM_P2
2023/06/13 00:00:23;;;;;;;5.53;3.30;;;;;;;;;;4916772;29;20036;-64
2023/06/13 00:02:50;;;;;;;9.88;3.63;;;;;;;;;;4916350;29;20020;-65
2023/06/13 00:05:16;;;;;;;11.18;4.18;;;;;;;;;;4916122;29;20470;-65
2023/06/13 00:07:43;;;;;;;6.95;3.85;;;;;;;;;;4916453;29;20552;-65
2023/06/13 00:10:10;;;;;;;7.40;4.28;;;;;;;;;;4916413;29;20016;-65
2023/06/13 00:12:36;;;;;;;4.65;3.70;;;;;;;;;;4916589;29;20031;-64
2023/06/13 00:15:04;;;;;;;8.45;3.65;;;;;;;;;;4916394;29;20040;-64
2023/06/13 00:17:31;;;;;;;5.22;3.75;;;;;;;;;;4916554;29;20020;-65
2023/06/13 00:19:59;;;;;;;9.15;4.18;;;;;;;;;;4915976;29;20529;-64
2023/06/13 00:22:26;;;;;;;6.65;3.83;;;;;;;;;;4919974;29;20027;-65
2023/06/13 00:24:52;;;;;;;6.10;3.50;;;;;;;;;;4920109;29;20500;-64
2023/06/13 00:27:18;;;;;;;11.68;3.35;;;;;;;;;;4920029;29;20504;-64
2023/06/13 00:29:45;;;;;;;4.25;3.25;;;;;;;;;;4920008;29;20481;-65
2023/06/13 00:32:11;;;;;;;6.88;3.22;;;;;;;;;;4919927;29;20020;-65
2023/06/13 00:34:40;;;;;;;8.13;3.05;;;;;;;;;;4919660;29;20043;-64
2023/06/13 00:37:12;;;;;;;3.83;3.38;;;;;;;;;;4919878;29;20413;-65
2023/06/13 00:39:39;;;;;;;3.17;2.67;;;;;;;;;;4919664;29;20044;-64
2023/06/13 00:42:06;;;;;;;6.53;2.92;;;;;;;;;;4919735;29;20031;-64
2023/06/13 00:44:33;;;;;;;4.10;3.10;;;;;;;;;;4920220;29;20023;-64
2023/06/13 00:47:02;;;;;;;5.60;3.17;;;;;;;;;;4919674;29;20046;-64
2023/06/13 00:49:29;;;;;;;5.88;3.20;;;;;;;;;;4919833;29;20027;-64
2023/06/13 00:51:56;;;;;;;4.75;2.83;;;;;;;;;;4919591;29;20035;-64
2023/06/13 00:54:23;;;;;;;5.68;3.28;;;;;;;;;;4919465;29;20044;-64
2023/06/13 00:56:49;;;;;;;5.63;3.08;;;;;;;;;;4919545;29;20039;-65
2023/06/13 00:59:17;;;;;;;7.57;3.47;;;;;;;;;;4919407;29;20453;-64
2023/06/13 01:01:43;;;;;;;7.72;3.33;;;;;;;;;;4919395;29;20038;-65
2023/06/13 01:04:13;;;;;;;6.50;3.85;;;;;;;;;;4919081;29;20029;-64
2023/06/13 01:06:45;;;;;;;3.55;3.20;;;;;;;;;;4919211;29;20027;-64
2023/06/13 01:09:11;;;;;;;10.98;3.58;;;;;;;;;;4919868;29;20032;-64
2023/06/13 01:11:56;;;;;;;4.93;3.47;;;;;;;;;;4919279;29;20024;-65
2023/06/13 01:14:30;;;;;;;7.85;3.90;;;;;;;;;;4919234;29;20040;-64
2023/06/13 01:17:03;;;;;;;8.98;3.53;;;;;;;;;;4919233;29;20028;-64
2023/06/13 01:19:37;;;;;;;5.07;3.55;;;;;;;;;;4918991;29;20047;-64
2023/06/13 01:22:05;;;;;;;13.52;3.80;;;;;;;;;;4919123;29;20037;-64
2023/06/13 01:24:54;;;;;;;8.45;3.70;;;;;;;;;;4919049;29;20020;-65
2023/06/13 01:27:22;;;;;;;14.75;3.92;;;;;;;;;;4918896;29;20425;-64
2023/06/13 01:29:49;;;;;;;12.32;4.53;;;;;;;;;;4919149;29;20020;-65
2023/06/13 01:32:16;;;;;;;6.35;4.60;;;;;;;;;;4918623;29;20034;-65
2023/06/13 01:34:45;;;;;;;7.55;4.85;;;;;;;;;;4918969;29;20477;-65
2023/06/13 01:37:11;;;;;;;9.10;5.03;;;;;;;;;;4918786;29;20024;-64
2023/06/13 01:39:38;;;;;;;8.85;4.95;;;;;;;;;;4918963;29;20093;-65
2023/06/13 01:42:04;;;;;;;7.60;5.50;;;;;;;;;;4918470;29;20039;-64
2023/06/13 01:44:31;;;;;;;7.30;5.07;;;;;;;;;;4918994;29;20024;-65
2023/06/13 01:47:09;;;;;;;5.78;5.18;;;;;;;;;;4918325;29;20031;-64
2023/06/13 01:49:48;;;;;;;10.25;4.90;;;;;;;;;;4918675;29;20032;-64
2023/06/13 01:52:22;;;;;;;11.45;5.88;;;;;;;;;;4918594;29;20032;-64
2023/06/13 01:54:52;;;;;;;9.38;5.07;;;;;;;;;;4918761;29;20046;-65
2023/06/13 01:57:20;;;;;;;8.75;5.30;;;;;;;;;;4918448;29;20031;-64
2023/06/13 01:59:51;;;;;;;8.07;5.10;;;;;;;;;;4918344;29;20036;-65
2023/06/13 02:02:17;;;;;;;10.68;5.13;;;;;;;;;;4918297;29;20504;-65
2023/06/13 02:04:44;;;;;;;14.25;5.75;;;;;;;;;;4918285;29;20032;-64
2023/06/13 02:07:10;;;;;;;9.63;5.40;;;;;;;;;;4918283;29;20083;-64
2023/06/13 02:09:37;;;;;;;11.27;5.70;;;;;;;;;;4918503;29;20052;-65
2023/06/13 02:12:04;;;;;;;6.85;5.47;;;;;;;;;;4918549;29;20094;-65
2023/06/13 02:14:32;;;;;;;7.32;5.72;;;;;;;;;;4918067;29;20036;-64
2023/06/13 02:17:01;;;;;;;8.52;5.88;;;;;;;;;;4918088;29;20024;-65
2023/06/13 02:19:29;;;;;;;10.88;5.97;;;;;;;;;;4918225;29;20035;-64
2023/06/13 02:21:56;;;;;;;8.43;5.82;;;;;;;;;;4918348;29;20021;-65
2023/06/13 02:24:22;;;;;;;9.10;5.55;;;;;;;;;;4918007;29;20054;-64
2023/06/13 02:26:49;;;;;;;10.18;5.38;;;;;;;;;;4917917;29;20035;-64
2023/06/13 02:29:16;;;;;;;8.13;6.28;;;;;;;;;;4917968;29;20030;-65
2023/06/13 02:31:42;;;;;;;6.68;5.43;;;;;;;;;;4917736;29;20035;-64
2023/06/13 02:34:09;;;;;;;9.77;5.95;;;;;;;;;;4917963;29;20039;-64
2023/06/13 02:36:36;;;;;;;7.90;5.50;;;;;;;;;;4917688;29;20030;-64
2023/06/13 02:39:03;;;;;;;10.10;5.35;;;;;;;;;;4917662;29;20401;-65
2023/06/13 02:41:29;;;;;;;7.65;5.38;;;;;;;;;;4917669;29;20035;-65
2023/06/13 02:43:56;;;;;;;9.93;5.50;;;;;;;;;;4916954;29;20028;-65
2023/06/13 02:46:22;;;;;;;13.70;5.70;;;;;;;;;;4917548;29;20050;-64
2023/06/13 02:48:48;;;;;;;9.73;6.28;;;;;;;;;;4917508;29;20024;-65
2023/06/13 02:51:15;;;;;;;7.65;5.70;;;;;;;;;;4917512;29;20054;-64
2023/06/13 02:53:41;;;;;;;9.90;5.93;;;;;;;;;;4917422;29;20028;-64
2023/06/13 02:56:07;;;;;;;9.20;5.85;;;;;;;;;;4917508;29;20044;-64
2023/06/13 02:58:33;;;;;;;8.00;5.70;;;;;;;;;;4917611;29;20024;-65
2023/06/13 03:01:00;;;;;;;6.63;5.78;;;;;;;;;;4917073;29;20024;-65
2023/06/13 03:03:26;;;;;;;10.60;5.65;;;;;;;;;;4917295;29;20028;-64
2023/06/13 03:05:56;;;;;;;8.65;5.72;;;;;;;;;;4917511;29;20545;-64
2023/06/13 03:08:22;;;;;;;10.43;6.20;;;;;;;;;;4917335;29;20028;-64
2023/06/13 03:10:50;;;;;;;6.90;5.97;;;;;;;;;;4917117;29;20043;-65
2023/06/13 03:13:16;;;;;;;10.57;5.65;;;;;;;;;;4900241;29;20082;-64
2023/06/13 03:15:45;;;;;;;8.85;5.80;;;;;;;;;;4917052;29;20059;-65
2023/06/13 03:18:11;;;;;;;10.18;5.95;;;;;;;;;;4916945;29;20021;-64
2023/06/13 03:20:38;;;;;;;8.35;5.80;;;;;;;;;;4917180;29;20044;-64
2023/06/13 03:23:05;;;;;;;9.63;5.35;;;;;;;;;;4917010;29;20025;-65
2023/06/13 03:25:31;;;;;;;8.57;5.40;;;;;;;;;;4916944;29;20400;-64
2023/06/13 03:27:57;;;;;;;9.13;5.40;;;;;;;;;;4916855;29;20059;-65
2023/06/13 03:30:23;;;;;;;8.45;5.05;;;;;;;;;;4900240;29;20027;-64
2023/06/13 03:32:54;;;;;;;7.97;5.40;;;;;;;;;;4916785;29;20028;-65
2023/06/13 03:35:21;;;;;;;;;;;;;;;;;;4917235;29;20370;-64
2023/06/13 03:37:47;;;;;;;11.00;5.43;;;;;;;;;;4916714;29;19907;-64
2023/06/13 03:40:13;;;;;;;9.43;5.40;;;;;;;;;;4916559;29;20044;-64
2023/06/13 03:42:40;;;;;;;6.75;5.55;;;;;;;;;;4916200;29;20031;-64
2023/06/13 03:45:06;;;;;;;7.68;5.18;;;;;;;;;;4916805;29;20030;-65
2023/06/13 03:47:32;;;;;;;7.32;5.45;;;;;;;;;;4916731;29;20028;-65
2023/06/13 03:49:59;;;;;;;9.35;5.93;;;;;;;;;;4916594;29;20028;-65
2023/06/13 03:52:25;;;;;;;7.60;6.28;;;;;;;;;;4916517;29;20031;-65
2023/06/13 03:54:51;;;;;;;8.88;6.15;;;;;;;;;;4899336;29;20044;-64
2023/06/13 03:57:18;;;;;;;7.00;5.68;;;;;;;;;;4915817;29;20034;-65
2023/06/13 03:59:44;;;;;;;9.63;5.60;;;;;;;;;;4916552;29;20039;-65
2023/06/13 04:02:13;;;;;;;6.72;6.03;;;;;;;;;;4916678;29;20377;-64
2023/06/13 04:04:46;;;;;;;8.95;6.07;;;;;;;;;;4916468;29;20444;-64
2023/06/13 04:07:12;;;;;;;9.80;6.63;;;;;;;;;;4916325;29;20032;-65
2023/06/13 04:09:39;;;;;;;10.10;5.93;;;;;;;;;;4916495;29;20038;-64
2023/06/13 04:12:05;;;;;;;12.50;6.43;;;;;;;;;;4899135;29;20042;-65
2023/06/13 04:14:35;;;;;;;13.88;6.70;;;;;;;;;;4916251;29;20030;-64
2023/06/13 04:17:01;;;;;;;9.80;6.15;;;;;;;;;;4916317;29;20508;-64
2023/06/13 04:19:27;;;;;;;12.20;6.55;;;;;;;;;;4916782;29;20075;-64
2023/06/13 04:21:54;;;;;;;9.18;6.40;;;;;;;;;;4916309;29;20374;-64
2023/06/13 04:24:21;;;;;;;13.82;6.57;;;;;;;;;;4916559;29;20024;-64
2023/06/13 04:26:48;;;;;;;8.65;6.07;;;;;;;;;;4915903;29;20385;-64
2023/06/13 04:29:18;;;;;;;9.13;5.88;;;;;;;;;;4916237;29;20020;-64
2023/06/13 04:31:46;;;;;;;7.25;6.47;;;;;;;;;;4916438;29;20031;-65
2023/06/13 04:34:13;;;;;;;7.75;5.85;;;;;;;;;;4916136;29;20486;-64
2023/06/13 04:36:41;;;;;;;6.75;5.65;;;;;;;;;;4916008;29;20035;-64
2023/06/13 04:39:08;;;;;;;7.10;5.60;;;;;;;;;;4916139;29;20040;-65
2023/06/13 04:41:35;;;;;;;6.97;5.68;;;;;;;;;;4915756;29;20046;-65
2023/06/13 04:44:05;;;;;;;11.35;5.85;;;;;;;;;;4916225;29;20038;-65
2023/06/13 04:46:32;;;;;;;6.20;5.53;;;;;;;;;;4916290;29;20490;-64
2023/06/13 04:49:00;;;;;;;9.95;5.30;;;;;;;;;;4916351;29;20035;-65
2023/06/13 04:51:27;;;;;;;6.65;5.25;;;;;;;;;;4916525;29;20032;-65
2023/06/13 04:53:56;;;;;;;6.43;5.13;;;;;;;;;;4916248;29;20032;-64
2023/06/13 04:56:26;;;;;;;7.43;5.05;;;;;;;;;;4915640;29;20048;-65
2023/06/13 04:58:53;;;;;;;9.18;5.38;;;;;;;;;;4916210;29;20024;-64
2023/06/13 05:01:28;;;;;;;9.00;5.40;;;;;;;;;;4916189;29;20028;-64
2023/06/13 05:03:55;;;;;;;8.60;5.15;;;;;;;;;;4916303;29;20036;-64
2023/06/13 05:06:22;;;;;;;8.55;5.18;;;;;;;;;;4916340;29;20036;-65
2023/06/13 05:08:48;;;;;;;8.70;5.47;;;;;;;;;;4919260;29;20035;-64
2023/06/13 05:11:14;;;;;;;7.43;5.43;;;;;;;;;;4919104;29;20020;-64
2023/06/13 05:13:41;;;;;;;7.13;4.90;;;;;;;;;;4919369;29;20044;-64
2023/06/13 05:16:07;;;;;;;8.95;5.18;;;;;;;;;;4919035;29;20040;-64
2023/06/13 05:18:34;;;;;;;15.05;6.85;;;;;;;;;;4919214;29;20063;-65
2023/06/13 05:21:00;;;;;;;8.07;6.03;;;;;;;;;;4919089;29;20040;-65
2023/06/13 05:23:28;;;;;;;8.32;5.60;;;;;;;;;;4919136;29;20024;-64
2023/06/13 05:25:55;;;;;;;6.68;5.30;;;;;;;;;;4918848;29;20473;-64
2023/06/13 05:28:21;;;;;;;11.48;5.38;;;;;;;;;;4919230;29;20028;-65
2023/06/13 05:30:48;;;;;;;9.25;5.40;;;;;;;;;;4918888;29;20028;-65
2023/06/13 05:33:14;;;;;;;8.95;5.45;;;;;;;;;;4919125;29;20036;-65
2023/06/13 05:35:41;;;;;;;6.00;5.43;;;;;;;;;;4918872;29;20040;-64
2023/06/13 05:38:09;;;;;;;8.77;5.70;;;;;;;;;;4918666;29;20452;-69
2023/06/13 05:40:38;;;;;;;8.52;4.60;;;;;;;;;;4918687;29;20044;-65
2023/06/13 05:43:04;;;;;;;5.65;4.60;;;;;;;;;;4933251;29;20400;-65
2023/06/13 05:45:31;;;;;;;11.95;5.20;;;;;;;;;;4937249;29;20412;-65
2023/06/13 05:47:57;;;;;;;8.73;4.90;;;;;;;;;;4936920;29;20024;-64
2023/06/13 05:50:23;;;;;;;6.55;4.53;;;;;;;;;;4937093;29;20024;-65
2023/06/13 05:52:50;;;;;;;9.32;5.25;;;;;;;;;;4936605;29;20016;-65
2023/06/13 05:55:16;;;;;;;9.07;4.40;;;;;;;;;;4936866;29;20044;-64
2023/06/13 05:57:44;;;;;;;11.80;4.88;;;;;;;;;;4936785;29;20028;-65
2023/06/13 06:00:13;;;;;;;5.30;4.65;;;;;;;;;;4937085;29;20036;-64
2023/06/13 06:02:43;;;;;;;11.73;5.32;;;;;;;;;;4936764;29;20057;-65
2023/06/13 06:05:11;;;;;;;8.88;4.88;;;;;;;;;;4937058;29;20024;-64
2023/06/13 06:07:38;;;;;;;10.23;4.90;;;;;;;;;;4936508;29;20032;-65
2023/06/13 06:10:05;;;;;;;6.43;4.85;;;;;;;;;;4936638;29;20034;-64
2023/06/13 06:12:32;;;;;;;10.40;4.40;;;;;;;;;;4936622;29;20035;-64
2023/06/13 06:14:58;;;;;;;8.02;5.20;;;;;;;;;;4936352;29;20047;-65
2023/06/13 06:17:24;;;;;;;7.32;5.00;;;;;;;;;;4936894;29;20036;-64
2023/06/13 06:19:51;;;;;;;14.40;5.63;;;;;;;;;;4936296;29;20023;-64
2023/06/13 06:22:17;;;;;;;6.97;5.28;;;;;;;;;;4936299;29;20043;-66
2023/06/13 06:24:44;;;;;;;7.78;5.05;;;;;;;;;;4928637;29;20027;-65
2023/06/13 06:27:11;;;;;;;6.43;4.85;;;;;;;;;;4926695;29;20030;-65
2023/06/13 06:29:37;;;;;;;9.45;4.65;;;;;;;;;;4921717;29;20046;-64
2023/06/13 06:32:05;;;;;;;5.57;4.40;;;;;;;;;;4916531;29;20088;-65
2023/06/13 06:34:31;;;;;;;10.60;4.40;;;;;;;;;;4917143;29;20067;-65
2023/06/13 06:36:58;;;;;;;6.22;4.13;;;;;;;;;;4916541;29;20040;-65
2023/06/13 06:39:24;;;;;;;5.10;4.60;;;;;;;;;;4916888;29;20044;-65
2023/06/13 06:41:50;;;;;;;5.10;4.40;;;;;;;;;;4917075;29;20101;-65
2023/06/13 06:44:16;;;;;;;5.47;4.07;;;;;;;;;;4916545;29;20038;-65
2023/06/13 06:46:43;;;;;;;6.85;4.32;;;;;;;;;;4916619;29;20430;-65
2023/06/13 06:49:09;;;;;;;6.45;4.13;;;;;;;;;;4916785;29;20028;-65
2023/06/13 06:51:35;;;;;;;5.20;4.60;;;;;;;;;;4930939;29;20043;-65
2023/06/13 06:54:02;;;;;;;5.65;4.47;;;;;;;;;;4916786;29;20024;-65
2023/06/13 06:56:28;;;;;;;6.35;4.13;;;;;;;;;;4916737;29;20034;-65
2023/06/13 06:58:54;;;;;;;3.88;3.58;;;;;;;;;;4916801;29;20547;-65
2023/06/13 07:01:21;;;;;;;4.15;3.60;;;;;;;;;;4916620;29;20028;-65
2023/06/13 07:03:47;;;;;;;4.85;3.90;;;;;;;;;;4916564;29;20481;-65
2023/06/13 07:06:13;;;;;;;5.95;3.58;;;;;;;;;;4915653;29;20024;-65
2023/06/13 07:08:40;;;;;;;3.88;3.10;;;;;;;;;;4916524;29;20024;-65
2023/06/13 07:11:06;;;;;;;3.90;3.50;;;;;;;;;;4914714;29;20031;-66
2023/06/13 07:13:33;;;;;;;4.97;3.58;;;;;;;;;;4930502;29;20020;-65
2023/06/13 07:16:02;;;;;;;4.47;3.55;;;;;;;;;;4933770;29;20047;-65
2023/06/13 07:18:29;;;;;;;5.88;3.20;;;;;;;;;;4918581;29;20031;-65
2023/06/13 07:20:56;;;;;;;3.30;3.00;;;;;;;;;;4933700;29;20030;-65
2023/06/13 07:23:23;;;;;;;4.95;2.92;;;;;;;;;;4934265;29;20027;-66
2023/06/13 07:25:49;;;;;;;5.05;3.03;;;;;;;;;;4934389;29;20042;-65
2023/06/13 07:28:15;;;;;;;5.47;3.30;;;;;;;;;;4934281;29;20038;-65
2023/06/13 07:30:42;;;;;;;5.95;3.72;;;;;;;;;;4934008;29;20027;-65
2023/06/13 07:33:08;;;;;;;5.85;3.90;;;;;;;;;;4934404;29;20540;-65
2023/06/13 07:35:35;;;;;;;8.85;3.80;;;;;;;;;;4933792;29;20027;-65
2023/06/13 07:38:01;;;;;;;3.60;3.30;;;;;;;;;;4933474;29;20572;-65
2023/06/13 07:40:27;;;;;;;5.25;3.58;;;;;;;;;;4933311;29;20044;-65
2023/06/13 07:42:54;;;;;;;5.40;3.08;;;;;;;;;;4933235;29;20024;-65
2023/06/13 07:45:21;;;;;;;4.00;3.22;;;;;;;;;;4933923;29;20510;-65
2023/06/13 07:47:47;;;;;;;9.15;4.28;;;;;;;;;;4931373;29;20031;-66
2023/06/13 07:50:13;;;;;;;6.25;3.53;;;;;;;;;;4897988;29;20036;-65
2023/06/13 07:52:40;;;;;;;5.15;3.53;;;;;;;;;;4898248;29;20032;-65
2023/06/13 07:55:07;;;;;;;5.03;3.70;;;;;;;;;;4915239;29;20039;-65
2023/06/13 07:57:33;;;;;;;6.57;3.38;;;;;;;;;;4915041;29;20034;-64
2023/06/13 07:59:59;;;;;;;3.75;3.25;;;;;;;;;;4931956;29;20512;-65
2023/06/13 08:02:26;;;;;;;4.13;3.13;;;;;;;;;;4934159;29;20030;-65
2023/06/13 08:04:52;;;;;;;3.95;3.47;;;;;;;;;;4933302;29;20031;-65
2023/06/13 08:07:19;;;;;;;4.72;2.90;;;;;;;;;;4933765;29;20031;-65
2023/06/13 08:09:45;;;;;;;3.45;2.92;;;;;;;;;;4933832;29;20023;-65
2023/06/13 08:12:11;;;;;;;2.97;2.72;;;;;;;;;;4933753;29;20412;-65
2023/06/13 08:14:38;;;;;;;5.45;2.92;;;;;;;;;;4933640;29;20036;-65
2023/06/13 08:17:04;;;;;;;3.35;3.05;;;;;;;;;;4933839;29;20043;-66
2023/06/13 08:19:31;;;;;;;3.72;3.15;;;;;;;;;;4933573;29;20015;-65
2023/06/13 08:21:57;;;;;;;4.53;2.50;;;;;;;;;;4933648;29;20046;-65
2023/06/13 08:24:23;;;;;;;5.75;2.45;;;;;;;;;;4932543;29;20032;-66
2023/06/13 08:26:50;;;;;;;3.20;2.90;;;;;;;;;;4933650;29;20038;-66
2023/06/13 08:29:17;;;;;;;2.60;2.40;;;;;;;;;;4933627;29;20027;-65
2023/06/13 08:31:44;;;;;;;3.10;2.70;;;;;;;;;;4933705;29;20032;-66
2023/06/13 08:34:10;;;;;;;3.85;2.40;;;;;;;;;;4933262;29;20030;-66
2023/06/13 08:36:36;;;;;;;2.88;2.55;;;;;;;;;;4933671;29;20028;-66
2023/06/13 08:39:05;;;;;;;3.67;2.40;;;;;;;;;;4933364;29;20429;-65
2023/06/13 08:41:31;;;;;;;2.50;2.30;;;;;;;;;;4934079;29;20400;-65
2023/06/13 08:43:58;;;;;;;2.65;2.00;;;;;;;;;;4937201;29;20036;-65
2023/06/13 08:46:25;;;;;;;4.25;2.22;;;;;;;;;;4937596;29;20019;-65
2023/06/13 08:48:52;;;;;;;4.43;2.22;;;;;;;;;;4922468;29;20034;-65
2023/06/13 08:51:21;;;;;;;2.20;2.00;;;;;;;;;;4937100;29;20440;-66
2023/06/13 08:53:52;;;;;;;2.05;1.85;;;;;;;;;;4920452;29;20028;-65
2023/06/13 08:56:21;;;;;;;2.50;2.30;;;;;;;;;;4936785;29;20399;-66
2023/06/13 08:58:51;;;;;;;2.97;2.03;;;;;;;;;;4937125;29;20034;-66
2023/06/13 09:01:19;;;;;;;2.28;2.08;;;;;;;;;;4936636;29;20027;-65
2023/06/13 09:03:45;;;;;;;3.67;2.20;;;;;;;;;;4937120;29;20156;-65
2023/06/13 09:06:13;;;;;;;2.95;2.60;;;;;;;;;;4936838;29;20050;-65
2023/06/13 09:08:40;;;;;;;2.63;2.00;;;;;;;;;;4936575;29;20057;-65
2023/06/13 09:11:07;;;;;;;2.85;2.40;;;;;;;;;;4936867;29;20026;-65
2023/06/13 09:13:34;;;;;;;2.70;2.00;;;;;;;;;;4936739;29;20031;-66
2023/06/13 09:16:01;;;;;;;5.85;2.20;;;;;;;;;;4936210;29;20035;-66
2023/06/13 09:18:27;;;;;;;4.70;2.20;;;;;;;;;;4936675;29;20489;-65
2023/06/13 09:20:54;;;;;;;3.17;1.83;;;;;;;;;;4936644;29;20038;-66
2023/06/13 09:23:20;;;;;;;5.43;1.75;;;;;;;;;;4935628;29;20024;-65
2023/06/13 09:25:48;;;;;;;2.15;1.95;;;;;;;;;;4936875;29;20062;-66
2023/06/13 09:28:26;;;;;;;3.75;2.10;;;;;;;;;;4936664;29;20027;-66
2023/06/13 09:30:53;;;;;;;3.30;1.70;;;;;;;;;;4936241;29;20036;-65
2023/06/13 09:33:20;;;;;;;3.45;2.13;;;;;;;;;;4936363;29;20032;-65
2023/06/13 09:35:47;;;;;;;2.28;1.80;;;;;;;;;;4936348;29;20040;-65
2023/06/13 09:38:14;;;;;;;4.75;1.70;;;;;;;;;;4936264;29;20027;-65
2023/06/13 09:40:46;;;;;;;3.58;2.10;;;;;;;;;;4935976;29;20056;-65
2023/06/13 09:43:13;;;;;;;2.45;2.10;;;;;;;;;;4936360;29;20024;-65
2023/06/13 09:45:43;;;;;;;4.47;2.25;;;;;;;;;;4936071;29;20058;-65
2023/06/13 09:48:09;;;;;;;2.75;2.00;;;;;;;;;;4936113;29;20024;-65
2023/06/13 09:50:40;;;;;;;2.42;1.73;;;;;;;;;;4936094;29;20030;-65
2023/06/13 09:53:07;;;;;;;2.38;1.90;;;;;;;;;;4935029;29;20488;-65
2023/06/13 09:55:33;;;;;;;2.28;2.03;;;;;;;;;;4935668;29;20032;-65
2023/06/13 09:58:01;;;;;;;2.35;2.13;;;;;;;;;;4935630;29;20428;-65
2023/06/13 10:00:28;;;;;;;2.70;2.05;;;;;;;;;;4935564;29;20042;-65
2023/06/13 10:02:55;;;;;;;4.43;2.03;;;;;;;;;;4935799;29;20036;-65
2023/06/13 10:05:22;;;;;;;4.45;2.22;;;;;;;;;;4935737;29;20031;-65
2023/06/13 10:07:48;;;;;;;4.10;2.30;;;;;;;;;;4935821;29;20396;-65
2023/06/13 10:10:15;;;;;;;2.20;1.95;;;;;;;;;;4935639;29;20042;-65
2023/06/13 10:12:45;;;;;;;3.20;2.10;;;;;;;;;;4935544;29;20488;-65
2023/06/13 10:15:13;;;;;;;4.28;1.92;;;;;;;;;;4935242;29;20047;-65
2023/06/13 10:17:41;;;;;;;2.75;2.00;;;;;;;;;;4935623;29;20042;-65
2023/06/13 10:20:10;;;;;;;2.42;2.22;;;;;;;;;;4935660;29;20031;-65
2023/06/13 10:22:39;;;;;;;6.25;2.55;;;;;;;;;;4935831;29;20024;-66
2023/06/13 10:25:07;;;;;;;2.88;1.98;;;;;;;;;;4935755;29;20036;-65
2023/06/13 10:27:36;;;;;;;2.42;1.98;;;;;;;;;;4935231;29;20575;-66
2023/06/13 10:30:02;;;;;;;4.90;1.90;;;;;;;;;;4934948;29;20040;-66
2023/06/13 10:32:44;;;;;;;2.88;2.22;;;;;;;;;;4935539;29;20104;-66
2023/06/13 10:35:22;;;;;;;2.95;2.03;;;;;;;;;;4935207;29;20040;-65
2023/06/13 10:38:14;;;;;;;3.25;2.10;;;;;;;;;;4934818;29;20016;-65
2023/06/13 10:40:46;;;;;;;2.08;1.95;;;;;;;;;;4876088;29;20108;-63
2023/06/13 10:43:12;;;;;;;2.35;1.95;;;;;;;;;;4874991;29;20049;-66
2023/06/13 10:45:40;;;;;;;2.65;2.10;;;;;;;;;;4876365;29;20037;-67
2023/06/13 10:48:07;;;;;;;2.22;1.90;;;;;;;;;;4874594;29;20506;-67
2023/06/13 10:50:37;;;;;;;3.67;1.98;;;;;;;;;;4876489;29;20045;-67
2023/06/13 10:53:03;;;;;;;2.35;1.98;;;;;;;;;;4863852;29;20033;-66
2023/06/13 10:55:31;;;;;;;2.40;1.88;;;;;;;;;;4857651;29;20053;-66
2023/06/13 10:57:59;;;;;;;2.92;1.80;;;;;;;;;;4857035;29;20048;-66
2023/06/13 11:00:25;;;;;;;2.95;1.92;;;;;;;;;;4857628;29;20430;-66
2023/06/13 11:03:01;;;;;;;2.50;1.92;;;;;;;;;;4857693;29;20039;-66
2023/06/13 11:05:28;;;;;;;2.00;1.80;;;;;;;;;;4856991;29;20070;-67
2023/06/13 11:07:55;;;;;;;2.25;1.95;;;;;;;;;;4867354;29;20066;-67
2023/06/13 11:10:24;;;;;;;3.17;1.92;;;;;;;;;;4875538;29;20451;-66
2023/06/13 11:12:54;;;;;;;2.28;1.73;;;;;;;;;;4875795;29;20033;-67
2023/06/13 11:15:22;;;;;;;3.88;2.17;;;;;;;;;;4875394;29;20047;-67
2023/06/13 11:18:07;;;;;;;2.25;2.05;;;;;;;;;;4907588;29;20523;-67
2023/06/13 11:20:54;;;;;;;2.08;1.80;;;;;;;;;;4917591;29;20040;-67
2023/06/13 11:23:24;;;;;;;2.13;1.92;;;;;;;;;;4934084;29;20067;-66
2023/06/13 11:25:51;;;;;;;4.50;2.20;;;;;;;;;;4934210;29;20031;-66
2023/06/13 11:28:18;;;;;;;3.97;2.03;;;;;;;;;;4933850;29;20041;-66
2023/06/13 11:30:47;;;;;;;5.20;2.03;;;;;;;;;;4934200;29;20027;-66
2023/06/13 11:33:14;;;;;;;3.45;2.00;;;;;;;;;;4934081;29;20039;-66
2023/06/13 11:35:46;;;;;;;3.22;2.03;;;;;;;;;;4933923;29;20032;-66
2023/06/13 11:38:15;;;;;;;4.75;2.17;;;;;;;;;;4916895;29;20028;-67
2023/06/13 11:40:44;;;;;;;2.45;1.90;;;;;;;;;;4933365;29;20043;-66
2023/06/13 11:43:10;;;;;;;3.72;1.90;;;;;;;;;;4933733;29;20054;-66
2023/06/13 11:45:37;;;;;;;2.10;1.90;;;;;;;;;;4933934;29;20031;-66
2023/06/13 11:48:03;;;;;;;4.28;2.40;;;;;;;;;;4933689;29;20479;-66
2023/06/13 11:50:32;;;;;;;2.78;1.80;;;;;;;;;;4933805;29;20493;-66
2023/06/13 11:53:08;;;;;;;2.55;1.75;;;;;;;;;;4933562;29;20022;-67
2023/06/13 11:55:35;;;;;;;7.10;1.73;;;;;;;;;;4933191;29;20027;-66
2023/06/13 11:58:02;;;;;;;4.57;1.67;;;;;;;;;;4933695;29;20469;-66
2023/06/13 12:00:29;;;;;;;3.00;2.17;;;;;;;;;;4933632;29;20027;-66
2023/06/13 12:02:59;;;;;;;2.63;2.05;;;;;;;;;;4932000;29;20047;-66
2023/06/13 12:05:26;;;;;;;2.05;1.90;;;;;;;;;;4933521;29;20030;-66
2023/06/13 12:07:52;;;;;;;3.47;2.00;;;;;;;;;;4933528;29;20370;-66
2023/06/13 12:10:18;;;;;;;2.50;1.90;;;;;;;;;;4933632;29;20038;-66
2023/06/13 12:13:00;;;;;;;3.30;1.85;;;;;;;;;;4930366;29;20042;-67
2023/06/13 12:15:27;;;;;;;4.05;1.75;;;;;;;;;;4914237;29;20040;-66
2023/06/13 12:17:59;;;;;;;3.10;1.30;;;;;;;;;;4917133;29;20551;-66
2023/06/13 12:20:26;;;;;;;1.95;1.30;;;;;;;;;;4918555;29;20047;-66
2023/06/13 12:22:56;;;;;;;1.35;1.00;;;;;;;;;;4917494;29;20035;-66
2023/06/13 12:25:23;;;;;;;2.03;1.40;;;;;;;;;;4917962;29;20024;-66
2023/06/13 12:27:51;;;;;;;1.25;1.15;;;;;;;;;;4918440;29;20039;-66
2023/06/13 12:30:19;;;;;;;1.63;1.10;;;;;;;;;;4917228;29;20054;-66
2023/06/13 12:32:56;;;;;;;0.80;0.80;;;;;;;;;;4917932;29;20062;-66
2023/06/13 12:35:24;;;;;;;1.30;1.05;;;;;;;;;;4917660;29;20047;-66
2023/06/13 12:38:03;;;;;;;2.83;1.45;;;;;;;;;;4917510;29;20020;-66
2023/06/13 12:40:35;;;;;;;2.55;1.52;;;;;;;;;;4917792;29;20056;-66
2023/06/13 12:43:02;;;;;;;4.03;1.23;;;;;;;;;;4917706;29;20058;-66
2023/06/13 12:45:29;;;;;;;7.53;1.40;;;;;;;;;;4928113;29;20024;-66
2023/06/13 12:47:56;;;;;;;2.47;1.58;;;;;;;;;;4935992;29;20030;-66
2023/06/13 12:50:27;;;;;;;1.52;1.20;;;;;;;;;;4937140;29;20028;-66
2023/06/13 12:53:06;;;;;;;3.20;1.60;;;;;;;;;;4936480;29;20027;-66
2023/06/13 12:55:36;;;;;;;2.13;1.58;;;;;;;;;;4936579;29;20038;-66
2023/06/13 12:58:23;;;;;;;2.05;1.30;;;;;;;;;;4936780;29;20038;-66
2023/06/13 13:00:53;;;;;;;3.60;1.50;;;;;;;;;;4926984;29;20045;-66
2023/06/13 13:03:19;;;;;;;7.37;2.00;;;;;;;;;;4936516;29;20404;-66
2023/06/13 13:05:46;;;;;;;2.60;1.67;;;;;;;;;;4936647;29;20031;-66
2023/06/13 13:08:12;;;;;;;1.80;1.48;;;;;;;;;;4935561;29;20024;-66
2023/06/13 13:10:39;;;;;;;28.40;2.35;;;;;;;;;;4936648;29;20034;-65
2023/06/13 13:13:07;;;;;;;8.77;2.05;;;;;;;;;;4936133;29;20034;-66
2023/06/13 13:15:33;;;;;;;6.18;1.80;;;;;;;;;;4936522;29;20032;-65
2023/06/13 13:18:00;;;;;;;37.33;3.03;;;;;;;;;;4935722;29;20020;-65
2023/06/13 13:20:26;;;;;;;4.35;2.05;;;;;;;;;;4935742;29;20035;-65
2023/06/13 13:22:52;;;;;;;7.80;4.03;;;;;;;;;;4935579;29;20054;-66
2023/06/13 13:25:19;;;;;;;22.80;2.97;;;;;;;;;;4936009;29;20074;-66
2023/06/13 13:27:46;;;;;;;6.40;3.92;;;;;;;;;;4936087;29;20039;-66
2023/06/13 13:30:13;;;;;;;11.70;3.08;;;;;;;;;;4936052;29;20086;-66
2023/06/13 13:32:40;;;;;;;6.38;3.70;;;;;;;;;;4930077;29;20047;-66
2023/06/13 13:35:08;;;;;;;5.68;3.85;;;;;;;;;;4925816;29;20027;-65
2023/06/13 13:37:34;;;;;;;11.60;6.13;;;;;;;;;;4926413;29;20024;-66
2023/06/13 13:40:01;;;;;;;9.73;4.53;;;;;;;;;;4925338;29;20044;-66
2023/06/13 13:42:27;;;;;;;10.90;6.32;;;;;;;;;;4927415;29;20031;-66
2023/06/13 13:44:54;;;;;;;5.80;3.90;;;;;;;;;;4927230;29;20082;-65
2023/06/13 13:47:20;;;;;;;4.53;2.85;;;;;;;;;;4916948;29;20028;-66
2023/06/13 13:49:47;;;;;;;6.32;3.72;;;;;;;;;;4916883;29;20485;-66
2023/06/13 13:52:13;;;;;;;4.15;2.92;;;;;;;;;;4933651;29;20039;-66
2023/06/13 13:54:39;;;;;;;7.28;4.20;;;;;;;;;;4935535;29;20481;-66
2023/06/13 13:57:06;;;;;;;9.23;4.75;;;;;;;;;;4935629;29;20089;-65
2023/06/13 13:59:33;;;;;;;6.18;4.22;;;;;;;;;;4935014;29;20023;-65
2023/06/13 14:01:59;;;;;;;14.43;3.45;;;;;;;;;;4916273;29;20028;-65
2023/06/13 14:04:26;;;;;;;7.13;3.63;;;;;;;;;;4918548;29;20039;-66
2023/06/13 14:06:52;;;;;;;8.52;3.13;;;;;;;;;;4917767;29;20032;-65
2023/06/13 14:09:18;;;;;;;4.80;2.35;;;;;;;;;;4932995;29;20437;-65
2023/06/13 14:11:45;;;;;;;4.13;1.90;;;;;;;;;;4926587;29;20026;-66
2023/06/13 14:14:12;;;;;;;4.05;1.90;;;;;;;;;;4926368;29;20519;-66
2023/06/13 14:16:38;;;;;;;8.50;2.00;;;;;;;;;;4935082;29;20028;-66
2023/06/13 14:19:04;;;;;;;2.03;1.73;;;;;;;;;;4934439;29;20028;-66
2023/06/13 14:21:31;;;;;;;2.28;2.00;;;;;;;;;;4934344;29;20023;-66
2023/06/13 14:23:58;;;;;;;4.20;1.70;;;;;;;;;;4935295;29;20026;-66
2023/06/13 14:26:24;;;;;;;2.70;1.85;;;;;;;;;;4934712;29;20539;-66
2023/06/13 14:28:51;;;;;;;2.35;1.55;;;;;;;;;;4934974;29;20489;-66
2023/06/13 14:31:17;;;;;;;2.65;1.90;;;;;;;;;;4934346;29;20750;-66
2023/06/13 14:33:43;;;;;;;2.45;1.70;;;;;;;;;;4934940;29;20019;-65
2023/06/13 14:36:11;;;;;;;5.43;1.77;;;;;;;;;;4933814;29;20046;-66
2023/06/13 14:38:38;;;;;;;5.38;1.80;;;;;;;;;;4935098;29;20031;-66
2023/06/13 14:41:09;;;;;;;3.88;1.63;;;;;;;;;;4896524;29;20043;-66
2023/06/13 14:43:36;;;;;;;2.10;1.50;;;;;;;;;;4896146;29;20029;-64